Time,TemperatureF,DewpointF,PressureIn,WindDirection,WindDirectionDegrees,WindSpeedMPH,WindSpeedGustMPH,Humidity,HourlyPrecipIn,Conditions,Clouds,dailyrainin,SoftwareType,DateUTC
2013-10-22 00:06:00,37.6,27.0,30.38,NW,309,0.0,5.0,67,0.00,,,0.00,weatherlink.com 1.10,2013-10-22 06:06:00,
2013-10-22 00:21:00,36.6,27.0,30.38,West,280,2.0,4.0,69,0.00,,,0.00,weatherlink.com 1.10,2013-10-22 06:21:00,
2013-10-22 00:36:00,36.8,27.0,30.38,West,280,3.0,4.0,68,0.00,,,0.00,weatherlink.com 1.10,2013-10-22 06:36:00,
2013-10-22 00:51:00,35.9,27.0,30.39,SW,234,2.0,4.0,71,0.00,,,0.00,weatherlink.com 1.10,2013-10-22 06:51:00,
2013-10-22 01:06:00,35.8,27.0,30.39,SW,234,0.0,3.0,71,0.00,,,0.00,weatherlink.com 1.10,2013-10-22 07:06:00,
2013-10-22 01:21:00,35.6,27.0,30.39,SW,234,3.0,3.0,71,0.00,,,0.00,weatherlink.com 1.10,2013-10-22 07:21:00,
2013-10-22 01:36:00,35.9,27.0,30.39,SW,234,2.0,4.0,70,0.00,,,0.00,weatherlink.com 1.10,2013-10-22 07:36:00,
2013-10-22 01:51:00,35.8,27.0,30.39,SW,235,3.0,4.0,71,0.00,,,0.00,weatherlink.com 1.10,2013-10-22 07:51:00,
2013-10-22 02:06:00,35.6,27.0,30.39,SW,235,1.0,4.0,71,0.00,,,0.00,weatherlink.com 1.10,2013-10-22 08:06:00,
2013-10-22 02:21:00,36.6,27.0,30.40,WSW,258,1.0,7.0,68,0.00,,,0.00,weatherlink.com 1.10,2013-10-22 08:21:00,
2013-10-22 02:36:00,36.9,27.0,30.40,West,259,3.0,4.0,67,0.00,,,0.00,weatherlink.com 1.10,2013-10-22 08:36:00,
2013-10-22 02:51:00,37.5,27.0,30.40,West,271,1.0,6.0,66,0.00,,,0.00,weatherlink.com 1.10,2013-10-22 08:51:00,
2013-10-22 03:06:00,37.3,26.0,30.40,SW,235,3.0,4.0,65,0.00,,,0.00,weatherlink.com 1.10,2013-10-22 09:06:00,
2013-10-22 03:21:00,37.6,26.0,30.39,WSW,242,1.0,5.0,64,0.00,,,0.00,weatherlink.com 1.10,2013-10-22 09:21:00,
2013-10-22 03:36:00,35.2,27.0,30.40,WSW,242,0.0,3.0,71,0.00,,,0.00,weatherlink.com 1.10,2013-10-22 09:36:00,
2013-10-22 03:52:00,34.6,26.0,30.39,WSW,243,2.0,4.0,72,0.00,,,0.00,weatherlink.com 1.10,2013-10-22 09:52:00,
2013-10-22 04:07:00,35.6,26.0,30.39,West,264,2.0,5.0,68,0.00,,,0.00,weatherlink.com 1.10,2013-10-22 10:07:00,
2013-10-22 04:22:00,36.2,27.0,30.39,West,262,4.0,5.0,68,0.00,,,0.00,weatherlink.com 1.10,2013-10-22 10:22:00,
2013-10-22 04:37:00,37.2,26.0,30.38,West,262,3.0,7.0,65,0.00,,,0.00,weatherlink.com 1.10,2013-10-22 10:37:00,
2013-10-22 04:52:00,36.5,26.0,30.38,West,260,3.0,6.0,66,0.00,,,0.00,weatherlink.com 1.10,2013-10-22 10:52:00,
2013-10-22 05:07:00,37.2,26.0,30.38,West,275,1.0,5.0,64,0.00,,,0.00,weatherlink.com 1.10,2013-10-22 11:07:00,
2013-10-22 05:22:00,36.6,26.0,30.39,WSW,258,4.0,5.0,65,0.00,,,0.00,weatherlink.com 1.10,2013-10-22 11:22:00,
2013-10-22 05:37:00,34.7,25.0,30.39,WSW,240,2.0,5.0,69,0.00,,,0.00,weatherlink.com 1.10,2013-10-22 11:37:00,
2013-10-22 05:52:00,35.3,26.0,30.39,WSW,237,3.0,5.0,68,0.00,,,0.00,weatherlink.com 1.10,2013-10-22 11:52:00,
2013-10-22 06:07:00,36.2,25.0,30.40,WSW,241,5.0,7.0,65,0.00,,,0.00,weatherlink.com 1.10,2013-10-22 12:07:00,
2013-10-22 06:22:00,35.8,26.0,30.40,West,259,4.0,7.0,67,0.00,,,0.00,weatherlink.com 1.10,2013-10-22 12:22:00,
2013-10-22 06:37:00,37.5,26.0,30.40,SW,221,7.0,8.0,63,0.00,,,0.00,weatherlink.com 1.10,2013-10-22 12:37:00,
2013-10-22 06:52:00,38.0,26.0,30.39,SW,227,0.0,5.0,63,0.00,,,0.00,weatherlink.com 1.10,2013-10-22 12:52:00,
2013-10-22 07:07:00,36.8,26.0,30.39,SW,227,2.0,5.0,64,0.00,,,0.00,weatherlink.com 1.10,2013-10-22 13:07:00,
2013-10-22 07:22:00,37.6,26.0,30.39,SSW,212,0.0,6.0,63,0.00,,,0.00,weatherlink.com 1.10,2013-10-22 13:22:00,
2013-10-22 07:37:00,37.2,26.0,30.40,SW,214,0.0,7.0,64,0.00,,,0.00,weatherlink.com 1.10,2013-10-22 13:37:00,
2013-10-22 07:52:00,36.8,26.0,30.40,SW,214,1.0,4.0,64,0.00,,,0.00,weatherlink.com 1.10,2013-10-22 13:52:00,
2013-10-22 08:07:00,37.2,26.0,30.40,West,272,3.0,5.0,63,0.00,,,0.00,weatherlink.com 1.10,2013-10-22 14:07:00,
2013-10-22 08:22:00,38.0,26.0,30.40,West,265,3.0,6.0,63,0.00,,,0.00,weatherlink.com 1.10,2013-10-22 14:22:00,
2013-10-22 08:37:00,39.2,27.0,30.40,West,266,2.0,4.0,62,0.00,,,0.00,weatherlink.com 1.10,2013-10-22 14:37:00,
2013-10-22 08:52:00,41.3,27.0,30.40,West,266,2.0,5.0,57,0.00,,,0.00,weatherlink.com 1.10,2013-10-22 14:52:00,
2013-10-22 09:07:00,43.9,28.0,30.40,West,266,0.0,2.0,53,0.00,,,0.00,weatherlink.com 1.10,2013-10-22 15:07:00,
2013-10-22 09:22:00,47.1,28.0,30.39,West,266,0.0,3.0,47,0.00,,,0.00,weatherlink.com 1.10,2013-10-22 15:22:00,
2013-10-22 09:37:00,50.2,32.0,30.39,East,100,3.0,3.0,49,0.00,,,0.00,weatherlink.com 1.10,2013-10-22 15:37:00,
2013-10-22 09:52:00,50.4,28.0,30.39,East,100,1.0,5.0,43,0.00,,,0.00,weatherlink.com 1.10,2013-10-22 15:52:00,
2013-10-22 10:07:00,53.2,27.0,30.38,East,100,0.0,2.0,36,0.00,,,0.00,weatherlink.com 1.10,2013-10-22 16:07:00,
2013-10-22 10:22:00,53.9,28.0,30.37,East,100,3.0,3.0,37,0.00,,,0.00,weatherlink.com 1.10,2013-10-22 16:22:00,
2013-10-22 10:37:00,53.3,31.0,30.36,NE,48,3.0,7.0,42,0.00,,,0.00,weatherlink.com 1.10,2013-10-22 16:37:00,
2013-10-22 10:52:00,53.3,31.0,30.35,East,100,9.0,9.0,43,0.00,,,0.00,weatherlink.com 1.10,2013-10-22 16:52:00,
2013-10-22 11:07:00,53.1,32.0,30.34,NE,41,6.0,9.0,44,0.00,,,0.00,weatherlink.com 1.10,2013-10-22 17:07:00,
2013-10-22 11:22:00,53.9,33.0,30.34,East,92,6.0,9.0,46,0.00,,,0.00,weatherlink.com 1.10,2013-10-22 17:22:00,
2013-10-22 11:37:00,54.5,32.0,30.34,East,84,7.0,9.0,42,0.00,,,0.00,weatherlink.com 1.10,2013-10-22 17:37:00,
2013-10-22 11:52:00,55.6,32.0,30.34,ESE,120,3.0,9.0,41,0.00,,,0.00,weatherlink.com 1.10,2013-10-22 17:52:00,
2013-10-22 12:07:00,55.9,30.0,30.33,ESE,120,1.0,12.0,37,0.00,,,0.00,weatherlink.com 1.10,2013-10-22 18:07:00,
2013-10-22 12:22:00,56.7,29.0,30.33,East,96,2.0,11.0,35,0.00,,,0.00,weatherlink.com 1.10,2013-10-22 18:22:00,
2013-10-22 12:37:00,57.6,30.0,30.32,ENE,72,2.0,9.0,35,0.00,,,0.00,weatherlink.com 1.10,2013-10-22 18:37:00,
2013-10-22 12:52:00,57.6,31.0,30.32,East,97,5.0,10.0,36,0.00,,,0.00,weatherlink.com 1.10,2013-10-22 18:52:00,
2013-10-22 13:08:00,58.1,35.0,30.31,ESE,102,4.0,9.0,42,0.00,,,0.00,weatherlink.com 1.10,2013-10-22 19:08:00,
2013-10-22 13:23:00,57.8,33.0,30.30,East,86,8.0,10.0,39,0.00,,,0.00,weatherlink.com 1.10,2013-10-22 19:23:00,
2013-10-22 13:37:00,57.8,32.0,30.30,East,100,9.0,12.0,38,0.00,,,0.00,weatherlink.com 1.10,2013-10-22 19:37:00,
2013-10-22 13:53:00,58.3,28.0,30.29,ESE,105,5.0,12.0,32,0.00,,,0.00,weatherlink.com 1.10,2013-10-22 19:53:00,
2013-10-22 14:08:00,58.6,33.0,30.28,ESE,108,10.0,13.0,38,0.00,,,0.00,weatherlink.com 1.10,2013-10-22 20:08:00,
2013-10-22 14:23:00,58.7,31.0,30.27,ESE,108,2.0,10.0,35,0.00,,,0.00,weatherlink.com 1.10,2013-10-22 20:23:00,
2013-10-22 14:38:00,59.5,30.0,30.27,ESE,112,9.0,11.0,33,0.00,,,0.00,weatherlink.com 1.10,2013-10-22 20:38:00,
2013-10-22 14:53:00,59.3,31.0,30.27,ESE,104,8.0,15.0,35,0.00,,,0.00,weatherlink.com 1.10,2013-10-22 20:53:00,
2013-10-22 15:08:00,59.6,31.0,30.27,ESE,110,8.0,11.0,34,0.00,,,0.00,weatherlink.com 1.10,2013-10-22 21:08:00,
2013-10-22 15:23:00,60.2,29.0,30.27,SE,134,4.0,10.0,31,0.00,,,0.00,weatherlink.com 1.10,2013-10-22 21:23:00,
2013-10-22 15:38:00,60.9,29.0,30.27,East,96,6.0,9.0,30,0.00,,,0.00,weatherlink.com 1.10,2013-10-22 21:38:00,
2013-10-22 15:53:00,61.0,28.0,30.26,ESE,112,2.0,11.0,29,0.00,,,0.00,weatherlink.com 1.10,2013-10-22 21:53:00,
2013-10-22 16:08:00,62.6,29.0,30.26,SSE,166,4.0,8.0,28,0.00,,,0.00,weatherlink.com 1.10,2013-10-22 22:08:00,
2013-10-22 16:23:00,63.4,30.0,30.25,ESE,118,2.0,5.0,28,0.00,,,0.00,weatherlink.com 1.10,2013-10-22 22:23:00,
2013-10-22 16:38:00,62.4,29.0,30.25,South,170,2.0,8.0,28,0.00,,,0.00,weatherlink.com 1.10,2013-10-22 22:38:00,
2013-10-22 16:53:00,62.7,28.0,30.25,SSE,154,7.0,7.0,27,0.00,,,0.00,weatherlink.com 1.10,2013-10-22 22:53:00,
2013-10-22 17:08:00,62.3,30.0,30.25,SE,140,0.0,6.0,30,0.00,,,0.00,weatherlink.com 1.10,2013-10-22 23:08:00,
2013-10-22 17:23:00,62.3,29.0,30.25,SE,131,0.0,5.0,28,0.00,,,0.00,weatherlink.com 1.10,2013-10-22 23:23:00,
2013-10-22 17:38:00,61.3,33.0,30.25,SE,139,0.0,4.0,35,0.00,,,0.00,weatherlink.com 1.10,2013-10-22 23:38:00,
2013-10-22 17:53:00,56.6,32.0,30.25,WSW,239,3.0,5.0,40,0.00,,,0.00,weatherlink.com 1.10,2013-10-22 23:53:00,
2013-10-22 18:08:00,53.5,31.0,30.25,SSW,204,4.0,7.0,43,0.00,,,0.00,weatherlink.com 1.10,2013-10-23 00:08:00,
2013-10-22 18:23:00,52.3,32.0,30.25,SW,216,5.0,10.0,47,0.00,,,0.00,weatherlink.com 1.10,2013-10-23 00:23:00,
2013-10-22 18:38:00,51.6,32.0,30.24,SSW,210,8.0,10.0,47,0.00,,,0.00,weatherlink.com 1.10,2013-10-23 00:38:00,
2013-10-22 18:53:00,51.3,31.0,30.25,SSW,210,7.0,12.0,47,0.00,,,0.00,weatherlink.com 1.10,2013-10-23 00:53:00,
2013-10-22 19:08:00,51.1,31.0,30.25,SW,216,5.0,10.0,46,0.00,,,0.00,weatherlink.com 1.10,2013-10-23 01:08:00,
2013-10-22 19:23:00,50.5,31.0,30.26,WSW,248,2.0,10.0,48,0.00,,,0.00,weatherlink.com 1.10,2013-10-23 01:23:00,
2013-10-22 19:38:00,49.8,31.0,30.26,South,178,4.0,5.0,48,0.00,,,0.00,weatherlink.com 1.10,2013-10-23 01:38:00,
2013-10-22 19:53:00,47.1,31.0,30.26,West,281,0.0,4.0,53,0.00,,,0.00,weatherlink.com 1.10,2013-10-23 01:53:00,
2013-10-22 20:08:00,49.8,30.0,30.26,SSW,204,2.0,3.0,46,0.00,,,0.00,weatherlink.com 1.10,2013-10-23 02:08:00,
2013-10-22 20:23:00,48.8,28.0,30.27,SSW,203,1.0,4.0,45,0.00,,,0.00,weatherlink.com 1.10,2013-10-23 02:23:00,
2013-10-22 20:38:00,48.6,28.0,30.27,SW,214,0.0,4.0,46,0.00,,,0.00,weatherlink.com 1.10,2013-10-23 02:38:00,
2013-10-22 20:53:00,46.5,28.0,30.27,SW,214,1.0,3.0,49,0.00,,,0.00,weatherlink.com 1.10,2013-10-23 02:53:00,
2013-10-22 21:08:00,50.1,28.0,30.27,SSW,210,2.0,6.0,42,0.00,,,0.00,weatherlink.com 1.10,2013-10-23 03:08:00,
2013-10-22 21:23:00,46.0,28.0,30.28,SW,227,3.0,4.0,49,0.00,,,0.00,weatherlink.com 1.10,2013-10-23 03:23:00,
2013-10-22 21:38:00,47.1,28.0,30.29,SW,220,0.0,8.0,48,0.00,,,0.00,weatherlink.com 1.10,2013-10-23 03:38:00,
2013-10-22 21:53:00,48.0,26.0,30.29,SW,220,0.0,9.0,43,0.00,,,0.00,weatherlink.com 1.10,2013-10-23 03:53:00,
2013-10-22 22:08:00,49.6,26.0,30.29,SW,222,7.0,11.0,40,0.00,,,0.00,weatherlink.com 1.10,2013-10-23 04:08:00,
2013-10-22 22:23:00,50.4,25.0,30.28,SSW,211,8.0,14.0,38,0.00,,,0.00,weatherlink.com 1.10,2013-10-23 04:23:00,
2013-10-22 22:38:00,51.3,25.0,30.29,SW,220,11.0,21.0,36,0.00,,,0.00,weatherlink.com 1.10,2013-10-23 04:38:00,
2013-10-22 22:53:00,50.8,25.0,30.29,West,265,10.0,21.0,36,0.00,,,0.00,weatherlink.com 1.10,2013-10-23 04:53:00,
2013-10-22 23:08:00,49.5,25.0,30.30,WNW,292,5.0,20.0,39,0.00,,,0.00,weatherlink.com 1.10,2013-10-23 05:08:00,
2013-10-22 23:23:00,46.8,27.0,30.29,SW,233,3.0,6.0,46,0.00,,,0.00,weatherlink.com 1.10,2013-10-23 05:23:00,
2013-10-22 23:38:00,45.5,27.0,30.29,SW,233,1.0,2.0,49,0.00,,,0.00,weatherlink.com 1.10,2013-10-23 05:38:00,
2013-10-22 23:53:00,44.8,25.0,30.29,WNW,291,1.0,4.0,47,0.00,,,0.00,weatherlink.com 1.10,2013-10-23 05:53:00,